sensor_id;sensor_type;location;lat;lon;timestamp;pressure;altitude;pressure_sealevel;temperature
11321;BMP180;5715;48.234;14.320;2023-11-19T00:01:56;98864.00;;;11.70
11321;BMP180;5715;48.234;14.320;2023-11-19T00:04:54;98862.00;;;11.40
11321;BMP180;5715;48.234;14.320;2023-11-19T00:07:51;98855.00;;;11.20
11321;BMP180;5715;48.234;14.320;2023-11-19T00:10:40;98858.00;;;11.10
11321;BMP180;5715;48.234;14.320;2023-11-19T00:13:37;98857.00;;;11.00
11321;BMP180;5715;48.234;14.320;2023-11-19T00:16:41;98849.00;;;11.00
11321;BMP180;5715;48.234;14.320;2023-11-19T00:19:32;98832.00;;;10.80
11321;BMP180;5715;48.234;14.320;2023-11-19T00:22:23;98831.00;;;11.00
11321;BMP180;5715;48.234;14.320;2023-11-19T00:25:33;98833.00;;;11.20
11321;BMP180;5715;48.234;14.320;2023-11-19T00:28:34;98825.00;;;11.10
11321;BMP180;5715;48.234;14.320;2023-11-19T00:31:24;98827.00;;;11.40
11321;BMP180;5715;48.234;14.320;2023-11-19T00:34:24;98839.00;;;11.30
11321;BMP180;5715;48.234;14.320;2023-11-19T00:37:20;98849.00;;;11.20
11321;BMP180;5715;48.234;14.320;2023-11-19T00:40:14;98831.00;;;11.50
11321;BMP180;5715;48.234;14.320;2023-11-19T00:43:05;98819.00;;;11.20
11321;BMP180;5715;48.234;14.320;2023-11-19T00:46:23;98819.00;;;11.30
11321;BMP180;5715;48.234;14.320;2023-11-19T00:49:23;98826.00;;;11.40
11321;BMP180;5715;48.234;14.320;2023-11-19T00:52:11;98826.00;;;11.60
11321;BMP180;5715;48.234;14.320;2023-11-19T00:54:58;98812.00;;;11.60
11321;BMP180;5715;48.234;14.320;2023-11-19T00:57:46;98805.00;;;11.40
11321;BMP180;5715;48.234;14.320;2023-11-19T01:00:33;98794.00;;;11.60
11321;BMP180;5715;48.234;14.320;2023-11-19T01:03:22;98776.00;;;11.60
11321;BMP180;5715;48.234;14.320;2023-11-19T01:06:10;98769.00;;;11.50
11321;BMP180;5715;48.234;14.320;2023-11-19T01:08:57;98775.00;;;11.60
11321;BMP180;5715;48.234;14.320;2023-11-19T01:11:45;98778.00;;;11.50
11321;BMP180;5715;48.234;14.320;2023-11-19T01:14:33;98775.00;;;11.40
11321;BMP180;5715;48.234;14.320;2023-11-19T01:17:20;98774.00;;;11.40
11321;BMP180;5715;48.234;14.320;2023-11-19T01:20:08;98766.00;;;11.60
11321;BMP180;5715;48.234;14.320;2023-11-19T01:22:59;98771.00;;;11.60
11321;BMP180;5715;48.234;14.320;2023-11-19T01:25:47;98766.00;;;11.40
11321;BMP180;5715;48.234;14.320;2023-11-19T01:28:39;98754.00;;;11.60
11321;BMP180;5715;48.234;14.320;2023-11-19T01:31:34;98750.00;;;11.40
11321;BMP180;5715;48.234;14.320;2023-11-19T01:34:22;98747.00;;;11.30
11321;BMP180;5715;48.234;14.320;2023-11-19T01:37:10;98757.00;;;11.50
11321;BMP180;5715;48.234;14.320;2023-11-19T01:39:59;98743.00;;;11.40
11321;BMP180;5715;48.234;14.320;2023-11-19T01:42:47;98737.00;;;11.40
11321;BMP180;5715;48.234;14.320;2023-11-19T01:45:37;98736.00;;;11.40
11321;BMP180;5715;48.234;14.320;2023-11-19T01:48:26;98730.00;;;11.70
11321;BMP180;5715;48.234;14.320;2023-11-19T01:51:13;98737.00;;;11.60
11321;BMP180;5715;48.234;14.320;2023-11-19T01:54:04;98734.00;;;11.80
11321;BMP180;5715;48.234;14.320;2023-11-19T01:56:54;98716.00;;;11.70
11321;BMP180;5715;48.234;14.320;2023-11-19T01:59:44;98724.00;;;11.60
11321;BMP180;5715;48.234;14.320;2023-11-19T02:02:32;98711.00;;;11.50
11321;BMP180;5715;48.234;14.320;2023-11-19T02:05:20;98707.00;;;11.80
11321;BMP180;5715;48.234;14.320;2023-11-19T02:08:09;98704.00;;;11.70
11321;BMP180;5715;48.234;14.320;2023-11-19T02:10:57;98699.00;;;11.30
11321;BMP180;5715;48.234;14.320;2023-11-19T02:13:44;98702.00;;;11.30
11321;BMP180;5715;48.234;14.320;2023-11-19T02:16:32;98694.00;;;11.40
11321;BMP180;5715;48.234;14.320;2023-11-19T02:19:20;98695.00;;;11.60
11321;BMP180;5715;48.234;14.320;2023-11-19T02:22:08;98690.00;;;11.50
11321;BMP180;5715;48.234;14.320;2023-11-19T02:25:02;98688.00;;;11.60
11321;BMP180;5715;48.234;14.320;2023-11-19T02:28:01;98682.00;;;11.60
11321;BMP180;5715;48.234;14.320;2023-11-19T02:30:48;98680.00;;;11.60
11321;BMP180;5715;48.234;14.320;2023-11-19T02:33:37;98684.00;;;11.60
11321;BMP180;5715;48.234;14.320;2023-11-19T02:36:25;98674.00;;;11.60
11321;BMP180;5715;48.234;14.320;2023-11-19T02:39:13;98666.00;;;11.60
11321;BMP180;5715;48.234;14.320;2023-11-19T02:42:00;98664.00;;;11.50
11321;BMP180;5715;48.234;14.320;2023-11-19T02:44:48;98661.00;;;11.50
11321;BMP180;5715;48.234;14.320;2023-11-19T02:47:36;98660.00;;;11.60
11321;BMP180;5715;48.234;14.320;2023-11-19T02:50:24;98658.00;;;11.70
11321;BMP180;5715;48.234;14.320;2023-11-19T02:53:12;98651.00;;;11.70
11321;BMP180;5715;48.234;14.320;2023-11-19T02:56:00;98646.00;;;11.70
11321;BMP180;5715;48.234;14.320;2023-11-19T02:58:53;98648.00;;;11.80
11321;BMP180;5715;48.234;14.320;2023-11-19T03:01:41;98652.00;;;11.40
11321;BMP180;5715;48.234;14.320;2023-11-19T03:04:31;98650.00;;;11.60
11321;BMP180;5715;48.234;14.320;2023-11-19T03:07:19;98641.00;;;11.50
11321;BMP180;5715;48.234;14.320;2023-11-19T03:10:07;98637.00;;;11.60
11321;BMP180;5715;48.234;14.320;2023-11-19T03:12:56;98639.00;;;11.50
11321;BMP180;5715;48.234;14.320;2023-11-19T03:15:44;98646.00;;;11.60
11321;BMP180;5715;48.234;14.320;2023-11-19T03:18:33;98647.00;;;11.40
11321;BMP180;5715;48.234;14.320;2023-11-19T03:21:31;98649.00;;;11.20
11321;BMP180;5715;48.234;14.320;2023-11-19T03:24:18;98641.00;;;11.10
11321;BMP180;5715;48.234;14.320;2023-11-19T03:27:06;98640.00;;;11.20
11321;BMP180;5715;48.234;14.320;2023-11-19T03:29:54;98626.00;;;11.30
11321;BMP180;5715;48.234;14.320;2023-11-19T03:32:41;98622.00;;;11.30
11321;BMP180;5715;48.234;14.320;2023-11-19T03:35:29;98617.00;;;11.30
11321;BMP180;5715;48.234;14.320;2023-11-19T03:38:18;98617.00;;;11.40
11321;BMP180;5715;48.234;14.320;2023-11-19T03:41:13;98609.00;;;11.40
11321;BMP180;5715;48.234;14.320;2023-11-19T03:44:01;98601.00;;;11.40
11321;BMP180;5715;48.234;14.320;2023-11-19T03:46:48;98597.00;;;11.60
11321;BMP180;5715;48.234;14.320;2023-11-19T03:49:36;98578.00;;;11.50
11321;BMP180;5715;48.234;14.320;2023-11-19T03:52:24;98571.00;;;11.60
11321;BMP180;5715;48.234;14.320;2023-11-19T03:55:11;98574.00;;;11.60
11321;BMP180;5715;48.234;14.320;2023-11-19T03:57:59;98580.00;;;11.50
11321;BMP180;5715;48.234;14.320;2023-11-19T04:00:47;98572.00;;;11.50
11321;BMP180;5715;48.234;14.320;2023-11-19T04:03:35;98578.00;;;11.50
11321;BMP180;5715;48.234;14.320;2023-11-19T04:06:26;98581.00;;;11.30
11321;BMP180;5715;48.234;14.320;2023-11-19T04:09:13;98571.00;;;11.20
11321;BMP180;5715;48.234;14.320;2023-11-19T04:12:01;98567.00;;;11.30
11321;BMP180;5715;48.234;14.320;2023-11-19T04:14:48;98562.00;;;11.40
11321;BMP180;5715;48.234;14.320;2023-11-19T04:17:47;98554.00;;;11.10
11321;BMP180;5715;48.234;14.320;2023-11-19T04:20:36;98548.00;;;11.10
11321;BMP180;5715;48.234;14.320;2023-11-19T04:23:24;98549.00;;;11.20
11321;BMP180;5715;48.234;14.320;2023-11-19T04:26:12;98543.00;;;11.30
11321;BMP180;5715;48.234;14.320;2023-11-19T04:29:00;98549.00;;;11.10
11321;BMP180;5715;48.234;14.320;2023-11-19T04:31:47;98551.00;;;10.90
11321;BMP180;5715;48.234;14.320;2023-11-19T04:34:35;98549.00;;;10.70
11321;BMP180;5715;48.234;14.320;2023-11-19T04:37:23;98555.00;;;10.90
11321;BMP180;5715;48.234;14.320;2023-11-19T04:40:11;98551.00;;;10.80
11321;BMP180;5715;48.234;14.320;2023-11-19T04:42:59;98550.00;;;10.90
11321;BMP180;5715;48.234;14.320;2023-11-19T04:45:47;98562.00;;;10.90
11321;BMP180;5715;48.234;14.320;2023-11-19T04:48:34;98543.00;;;11.10
11321;BMP180;5715;48.234;14.320;2023-11-19T04:51:25;98549.00;;;11.10
11321;BMP180;5715;48.234;14.320;2023-11-19T04:54:12;98553.00;;;11.00
11321;BMP180;5715;48.234;14.320;2023-11-19T04:57:00;98561.00;;;10.80
11321;BMP180;5715;48.234;14.320;2023-11-19T04:59:47;98552.00;;;10.90
11321;BMP180;5715;48.234;14.320;2023-11-19T05:02:35;98544.00;;;10.70
11321;BMP180;5715;48.234;14.320;2023-11-19T05:05:23;98531.00;;;11.20
11321;BMP180;5715;48.234;14.320;2023-11-19T05:08:10;98549.00;;;11.10
11321;BMP180;5715;48.234;14.320;2023-11-19T05:10:58;98536.00;;;11.20
11321;BMP180;5715;48.234;14.320;2023-11-19T05:13:46;98537.00;;;11.10
11321;BMP180;5715;48.234;14.320;2023-11-19T05:16:34;98528.00;;;11.30
11321;BMP180;5715;48.234;14.320;2023-11-19T05:19:22;98536.00;;;11.40
11321;BMP180;5715;48.234;14.320;2023-11-19T05:22:10;98534.00;;;11.40
11321;BMP180;5715;48.234;14.320;2023-11-19T05:24:57;98529.00;;;11.40
11321;BMP180;5715;48.234;14.320;2023-11-19T05:27:45;98528.00;;;11.40
11321;BMP180;5715;48.234;14.320;2023-11-19T05:30:33;98521.00;;;11.50
11321;BMP180;5715;48.234;14.320;2023-11-19T05:33:20;98519.00;;;11.30
11321;BMP180;5715;48.234;14.320;2023-11-19T05:36:10;98539.00;;;11.40
11321;BMP180;5715;48.234;14.320;2023-11-19T05:38:58;98528.00;;;11.40
11321;BMP180;5715;48.234;14.320;2023-11-19T05:41:46;98526.00;;;11.60
11321;BMP180;5715;48.234;14.320;2023-11-19T05:44:33;98536.00;;;11.60
11321;BMP180;5715;48.234;14.320;2023-11-19T05:47:23;98534.00;;;11.60
11321;BMP180;5715;48.234;14.320;2023-11-19T05:50:11;98522.00;;;11.60
11321;BMP180;5715;48.234;14.320;2023-11-19T05:52:59;98524.00;;;11.60
11321;BMP180;5715;48.234;14.320;2023-11-19T05:55:46;98518.00;;;11.60
11321;BMP180;5715;48.234;14.320;2023-11-19T05:58:42;98526.00;;;11.60
11321;BMP180;5715;48.234;14.320;2023-11-19T06:01:35;98524.00;;;11.80
11321;BMP180;5715;48.234;14.320;2023-11-19T06:04:24;98496.00;;;11.70
11321;BMP180;5715;48.234;14.320;2023-11-19T06:07:11;98526.00;;;11.70
11321;BMP180;5715;48.234;14.320;2023-11-19T06:09:59;98502.00;;;11.70
11321;BMP180;5715;48.234;14.320;2023-11-19T06:12:46;98520.00;;;11.70
11321;BMP180;5715;48.234;14.320;2023-11-19T06:15:34;98522.00;;;11.70
11321;BMP180;5715;48.234;14.320;2023-11-19T06:18:22;98541.00;;;11.80
11321;BMP180;5715;48.234;14.320;2023-11-19T06:21:12;98522.00;;;11.70
11321;BMP180;5715;48.234;14.320;2023-11-19T06:23:59;98527.00;;;11.80
11321;BMP180;5715;48.234;14.320;2023-11-19T06:26:47;98519.00;;;11.90
11321;BMP180;5715;48.234;14.320;2023-11-19T06:29:35;98498.00;;;11.90
11321;BMP180;5715;48.234;14.320;2023-11-19T06:32:24;98507.00;;;11.90
11321;BMP180;5715;48.234;14.320;2023-11-19T06:35:12;98506.00;;;11.90
11321;BMP180;5715;48.234;14.320;2023-11-19T06:38:02;98518.00;;;11.90
11321;BMP180;5715;48.234;14.320;2023-11-19T06:40:50;98522.00;;;11.90
11321;BMP180;5715;48.234;14.320;2023-11-19T06:43:41;98510.00;;;11.80
11321;BMP180;5715;48.234;14.320;2023-11-19T06:46:29;98506.00;;;11.90
11321;BMP180;5715;48.234;14.320;2023-11-19T06:49:17;98506.00;;;11.90
11321;BMP180;5715;48.234;14.320;2023-11-19T06:52:06;98509.00;;;11.90
11321;BMP180;5715;48.234;14.320;2023-11-19T06:54:54;98515.00;;;11.90
11321;BMP180;5715;48.234;14.320;2023-11-19T06:57:54;98505.00;;;11.90
11321;BMP180;5715;48.234;14.320;2023-11-19T07:00:42;98500.00;;;12.00
11321;BMP180;5715;48.234;14.320;2023-11-19T07:03:29;98511.00;;;12.00
11321;BMP180;5715;48.234;14.320;2023-11-19T07:06:17;98514.00;;;12.10
11321;BMP180;5715;48.234;14.320;2023-11-19T07:09:05;98508.00;;;12.00
11321;BMP180;5715;48.234;14.320;2023-11-19T07:11:59;98486.00;;;12.10
11321;BMP180;5715;48.234;14.320;2023-11-19T07:14:48;98492.00;;;12.20
11321;BMP180;5715;48.234;14.320;2023-11-19T07:17:36;98483.00;;;12.20
11321;BMP180;5715;48.234;14.320;2023-11-19T07:20:24;98491.00;;;12.00
11321;BMP180;5715;48.234;14.320;2023-11-19T07:23:11;98495.00;;;12.20
11321;BMP180;5715;48.234;14.320;2023-11-19T07:25:59;98505.00;;;12.10
11321;BMP180;5715;48.234;14.320;2023-11-19T07:28:48;98502.00;;;11.90
11321;BMP180;5715;48.234;14.320;2023-11-19T07:31:36;98494.00;;;11.90
11321;BMP180;5715;48.234;14.320;2023-11-19T07:34:25;98503.00;;;12.10
11321;BMP180;5715;48.234;14.320;2023-11-19T07:37:12;98508.00;;;12.00
11321;BMP180;5715;48.234;14.320;2023-11-19T07:40:00;98507.00;;;11.50
11321;BMP180;5715;48.234;14.320;2023-11-19T07:42:47;98514.00;;;11.40
11321;BMP180;5715;48.234;14.320;2023-11-19T07:45:35;98503.00;;;11.60
11321;BMP180;5715;48.234;14.320;2023-11-19T07:48:22;98499.00;;;11.90
11321;BMP180;5715;48.234;14.320;2023-11-19T07:51:11;98499.00;;;12.10
11321;BMP180;5715;48.234;14.320;2023-11-19T07:54:00;98505.00;;;11.80
11321;BMP180;5715;48.234;14.320;2023-11-19T07:56:47;98514.00;;;11.40
11321;BMP180;5715;48.234;14.320;2023-11-19T07:59:37;98505.00;;;11.70
11321;BMP180;5715;48.234;14.320;2023-11-19T08:02:24;98504.00;;;12.00
11321;BMP180;5715;48.234;14.320;2023-11-19T08:05:12;98500.00;;;12.10
11321;BMP180;5715;48.234;14.320;2023-11-19T08:07:59;98499.00;;;12.20
11321;BMP180;5715;48.234;14.320;2023-11-19T08:10:47;98497.00;;;12.30
11321;BMP180;5715;48.234;14.320;2023-11-19T08:13:35;98506.00;;;12.30
11321;BMP180;5715;48.234;14.320;2023-11-19T08:16:22;98503.00;;;12.40
11321;BMP180;5715;48.234;14.320;2023-11-19T08:19:10;98501.00;;;12.50
11321;BMP180;5715;48.234;14.320;2023-11-19T08:21:58;98509.00;;;12.50
11321;BMP180;5715;48.234;14.320;2023-11-19T08:24:45;98504.00;;;12.70
11321;BMP180;5715;48.234;14.320;2023-11-19T08:27:33;98498.00;;;12.60
11321;BMP180;5715;48.234;14.320;2023-11-19T08:30:20;98500.00;;;12.70
11321;BMP180;5715;48.234;14.320;2023-11-19T08:33:08;98480.00;;;12.60
11321;BMP180;5715;48.234;14.320;2023-11-19T08:35:55;98476.00;;;12.80
11321;BMP180;5715;48.234;14.320;2023-11-19T08:38:43;98471.00;;;12.90
11321;BMP180;5715;48.234;14.320;2023-11-19T08:41:30;98469.00;;;12.90
11321;BMP180;5715;48.234;14.320;2023-11-19T08:44:18;98487.00;;;12.90
11321;BMP180;5715;48.234;14.320;2023-11-19T08:47:07;98481.00;;;13.00
11321;BMP180;5715;48.234;14.320;2023-11-19T08:49:54;98477.00;;;13.00
11321;BMP180;5715;48.234;14.320;2023-11-19T08:52:45;98469.00;;;13.00
11321;BMP180;5715;48.234;14.320;2023-11-19T08:55:32;98466.00;;;13.00
11321;BMP180;5715;48.234;14.320;2023-11-19T08:58:20;98455.00;;;13.10
11321;BMP180;5715;48.234;14.320;2023-11-19T09:01:08;98442.00;;;13.00
11321;BMP180;5715;48.234;14.320;2023-11-19T09:03:57;98441.00;;;13.10
11321;BMP180;5715;48.234;14.320;2023-11-19T09:06:45;98453.00;;;13.30
11321;BMP180;5715;48.234;14.320;2023-11-19T09:09:32;98448.00;;;13.40
11321;BMP180;5715;48.234;14.320;2023-11-19T09:12:23;98458.00;;;13.50
11321;BMP180;5715;48.234;14.320;2023-11-19T09:15:10;98453.00;;;13.40
11321;BMP180;5715;48.234;14.320;2023-11-19T09:17:58;98454.00;;;13.40
11321;BMP180;5715;48.234;14.320;2023-11-19T09:20:46;98463.00;;;13.40
11321;BMP180;5715;48.234;14.320;2023-11-19T09:23:34;98456.00;;;13.40
11321;BMP180;5715;48.234;14.320;2023-11-19T09:26:26;98451.00;;;13.40
11321;BMP180;5715;48.234;14.320;2023-11-19T09:29:13;98445.00;;;13.20
11321;BMP180;5715;48.234;14.320;2023-11-19T09:32:05;98446.00;;;13.40
11321;BMP180;5715;48.234;14.320;2023-11-19T09:34:53;98438.00;;;13.50
11321;BMP180;5715;48.234;14.320;2023-11-19T09:37:40;98435.00;;;13.40
11321;BMP180;5715;48.234;14.320;2023-11-19T09:40:28;98443.00;;;13.10
11321;BMP180;5715;48.234;14.320;2023-11-19T09:43:16;98442.00;;;13.10
11321;BMP180;5715;48.234;14.320;2023-11-19T09:46:06;98426.00;;;13.10
11321;BMP180;5715;48.234;14.320;2023-11-19T09:48:55;98417.00;;;13.30
11321;BMP180;5715;48.234;14.320;2023-11-19T09:51:45;98411.00;;;13.40
11321;BMP180;5715;48.234;14.320;2023-11-19T09:54:33;98412.00;;;13.40
11321;BMP180;5715;48.234;14.320;2023-11-19T09:57:20;98414.00;;;13.70
11321;BMP180;5715;48.234;14.320;2023-11-19T10:00:09;98407.00;;;13.80
11321;BMP180;5715;48.234;14.320;2023-11-19T10:03:00;98412.00;;;13.50
11321;BMP180;5715;48.234;14.320;2023-11-19T10:05:47;98412.00;;;13.40
11321;BMP180;5715;48.234;14.320;2023-11-19T10:08:39;98413.00;;;13.50
11321;BMP180;5715;48.234;14.320;2023-11-19T10:11:27;98415.00;;;13.60
11321;BMP180;5715;48.234;14.320;2023-11-19T10:14:15;98420.00;;;13.50
11321;BMP180;5715;48.234;14.320;2023-11-19T10:17:03;98409.00;;;13.60
11321;BMP180;5715;48.234;14.320;2023-11-19T10:19:51;98411.00;;;13.60
11321;BMP180;5715;48.234;14.320;2023-11-19T10:22:39;98407.00;;;13.60
11321;BMP180;5715;48.234;14.320;2023-11-19T10:25:28;98400.00;;;13.50
11321;BMP180;5715;48.234;14.320;2023-11-19T10:28:16;98399.00;;;13.60
11321;BMP180;5715;48.234;14.320;2023-11-19T10:31:05;98394.00;;;13.60
11321;BMP180;5715;48.234;14.320;2023-11-19T10:33:53;98387.00;;;13.70
11321;BMP180;5715;48.234;14.320;2023-11-19T10:36:41;98393.00;;;13.80
11321;BMP180;5715;48.234;14.320;2023-11-19T10:39:53;98386.00;;;13.90
11321;BMP180;5715;48.234;14.320;2023-11-19T10:42:44;98383.00;;;13.80
11321;BMP180;5715;48.234;14.320;2023-11-19T10:45:32;98370.00;;;13.90
11321;BMP180;5715;48.234;14.320;2023-11-19T10:48:21;98366.00;;;13.90
11321;BMP180;5715;48.234;14.320;2023-11-19T10:51:13;98367.00;;;13.90
11321;BMP180;5715;48.234;14.320;2023-11-19T10:54:09;98357.00;;;14.20
11321;BMP180;5715;48.234;14.320;2023-11-19T10:56:59;98368.00;;;14.00
11321;BMP180;5715;48.234;14.320;2023-11-19T10:59:52;98374.00;;;13.60
11321;BMP180;5715;48.234;14.320;2023-11-19T11:02:50;98375.00;;;13.90
11321;BMP180;5715;48.234;14.320;2023-11-19T11:05:41;98360.00;;;13.70
11321;BMP180;5715;48.234;14.320;2023-11-19T11:08:31;98360.00;;;14.00
11321;BMP180;5715;48.234;14.320;2023-11-19T11:11:19;98369.00;;;14.00
11321;BMP180;5715;48.234;14.320;2023-11-19T11:14:16;98370.00;;;14.10
11321;BMP180;5715;48.234;14.320;2023-11-19T11:17:05;98358.00;;;13.90
11321;BMP180;5715;48.234;14.320;2023-11-19T11:19:55;98350.00;;;14.00
11321;BMP180;5715;48.234;14.320;2023-11-19T11:30:49;98344.00;;;14.30
11321;BMP180;5715;48.234;14.320;2023-11-19T11:37:18;98313.00;;;14.50
11321;BMP180;5715;48.234;14.320;2023-11-19T11:40:14;98307.00;;;14.50
11321;BMP180;5715;48.234;14.320;2023-11-19T11:43:03;98310.00;;;14.70
11321;BMP180;5715;48.234;14.320;2023-11-19T11:45:52;98325.00;;;14.60
11321;BMP180;5715;48.234;14.320;2023-11-19T11:48:46;98330.00;;;14.70
11321;BMP180;5715;48.234;14.320;2023-11-19T11:54:34;98340.00;;;14.30
11321;BMP180;5715;48.234;14.320;2023-11-19T11:57:22;98342.00;;;14.40
11321;BMP180;5715;48.234;14.320;2023-11-19T12:00:21;98332.00;;;14.70
11321;BMP180;5715;48.234;14.320;2023-11-19T12:03:11;98336.00;;;14.40
11321;BMP180;5715;48.234;14.320;2023-11-19T12:05:59;98333.00;;;14.80
11321;BMP180;5715;48.234;14.320;2023-11-19T12:08:46;98329.00;;;14.80
11321;BMP180;5715;48.234;14.320;2023-11-19T12:11:37;98329.00;;;14.90
11321;BMP180;5715;48.234;14.320;2023-11-19T12:17:49;98337.00;;;14.40
11321;BMP180;5715;48.234;14.320;2023-11-19T12:20:38;98326.00;;;14.50
11321;BMP180;5715;48.234;14.320;2023-11-19T12:23:30;98323.00;;;14.30
11321;BMP180;5715;48.234;14.320;2023-11-19T12:26:32;98336.00;;;14.50
11321;BMP180;5715;48.234;14.320;2023-11-19T12:29:19;98329.00;;;14.60
11321;BMP180;5715;48.234;14.320;2023-11-19T12:32:08;98315.00;;;14.80
11321;BMP180;5715;48.234;14.320;2023-11-19T12:34:58;98301.00;;;14.90
11321;BMP180;5715;48.234;14.320;2023-11-19T12:37:48;98306.00;;;15.00
11321;BMP180;5715;48.234;14.320;2023-11-19T12:40:36;98313.00;;;14.50
11321;BMP180;5715;48.234;14.320;2023-11-19T12:43:24;98302.00;;;15.00
11321;BMP180;5715;48.234;14.320;2023-11-19T12:46:22;98303.00;;;14.90
11321;BMP180;5715;48.234;14.320;2023-11-19T12:49:11;98290.00;;;14.80
11321;BMP180;5715;48.234;14.320;2023-11-19T12:51:59;98287.00;;;15.00
11321;BMP180;5715;48.234;14.320;2023-11-19T12:54:47;98280.00;;;15.40
11321;BMP180;5715;48.234;14.320;2023-11-19T12:57:42;98286.00;;;15.60
11321;BMP180;5715;48.234;14.320;2023-11-19T13:00:30;98288.00;;;15.70
11321;BMP180;5715;48.234;14.320;2023-11-19T13:03:36;98291.00;;;16.20
11321;BMP180;5715;48.234;14.320;2023-11-19T13:06:26;98278.00;;;16.00
11321;BMP180;5715;48.234;14.320;2023-11-19T13:09:27;98284.00;;;15.80
11321;BMP180;5715;48.234;14.320;2023-11-19T13:12:16;98282.00;;;15.80
11321;BMP180;5715;48.234;14.320;2023-11-19T13:15:04;98279.00;;;15.70
11321;BMP180;5715;48.234;14.320;2023-11-19T13:17:52;98260.00;;;15.60
11321;BMP180;5715;48.234;14.320;2023-11-19T13:20:40;98273.00;;;15.80
11321;BMP180;5715;48.234;14.320;2023-11-19T13:23:27;98268.00;;;16.00
11321;BMP180;5715;48.234;14.320;2023-11-19T13:26:15;98264.00;;;16.10
11321;BMP180;5715;48.234;14.320;2023-11-19T13:29:03;98258.00;;;16.20
11321;BMP180;5715;48.234;14.320;2023-11-19T13:31:50;98266.00;;;16.10
11321;BMP180;5715;48.234;14.320;2023-11-19T13:34:38;98266.00;;;16.10
11321;BMP180;5715;48.234;14.320;2023-11-19T13:37:27;98257.00;;;16.20
11321;BMP180;5715;48.234;14.320;2023-11-19T13:40:15;98243.00;;;16.10
11321;BMP180;5715;48.234;14.320;2023-11-19T13:43:03;98240.00;;;16.10
11321;BMP180;5715;48.234;14.320;2023-11-19T13:45:50;98247.00;;;16.10
11321;BMP180;5715;48.234;14.320;2023-11-19T13:48:40;98240.00;;;16.10
11321;BMP180;5715;48.234;14.320;2023-11-19T13:51:28;98236.00;;;15.80
11321;BMP180;5715;48.234;14.320;2023-11-19T13:54:15;98238.00;;;15.80
11321;BMP180;5715;48.234;14.320;2023-11-19T13:57:03;98244.00;;;15.80
11321;BMP180;5715;48.234;14.320;2023-11-19T13:59:51;98247.00;;;15.60
11321;BMP180;5715;48.234;14.320;2023-11-19T14:02:40;98254.00;;;15.60
11321;BMP180;5715;48.234;14.320;2023-11-19T14:05:28;98248.00;;;15.50
11321;BMP180;5715;48.234;14.320;2023-11-19T14:08:20;98251.00;;;15.60
11321;BMP180;5715;48.234;14.320;2023-11-19T14:11:12;98242.00;;;15.70
11321;BMP180;5715;48.234;14.320;2023-11-19T14:14:00;98240.00;;;15.80
11321;BMP180;5715;48.234;14.320;2023-11-19T14:16:47;98234.00;;;15.70
11321;BMP180;5715;48.234;14.320;2023-11-19T14:19:35;98222.00;;;15.70
11321;BMP180;5715;48.234;14.320;2023-11-19T14:22:23;98222.00;;;15.60
11321;BMP180;5715;48.234;14.320;2023-11-19T14:25:12;98214.00;;;15.80
11321;BMP180;5715;48.234;14.320;2023-11-19T14:27:59;98216.00;;;15.60
11321;BMP180;5715;48.234;14.320;2023-11-19T14:30:48;98222.00;;;15.60
11321;BMP180;5715;48.234;14.320;2023-11-19T14:33:41;98230.00;;;15.40
11321;BMP180;5715;48.234;14.320;2023-11-19T14:36:28;98247.00;;;15.20
11321;BMP180;5715;48.234;14.320;2023-11-19T14:39:16;98235.00;;;15.20
11321;BMP180;5715;48.234;14.320;2023-11-19T14:42:04;98250.00;;;15.10
11321;BMP180;5715;48.234;14.320;2023-11-19T14:44:52;98244.00;;;15.00
11321;BMP180;5715;48.234;14.320;2023-11-19T14:47:40;98238.00;;;14.90
11321;BMP180;5715;48.234;14.320;2023-11-19T14:50:27;98243.00;;;14.70
11321;BMP180;5715;48.234;14.320;2023-11-19T14:53:15;98240.00;;;14.70
11321;BMP180;5715;48.234;14.320;2023-11-19T14:56:03;98236.00;;;14.70
11321;BMP180;5715;48.234;14.320;2023-11-19T14:58:52;98230.00;;;14.70
11321;BMP180;5715;48.234;14.320;2023-11-19T15:01:39;98219.00;;;14.70
11321;BMP180;5715;48.234;14.320;2023-11-19T15:04:27;98207.00;;;14.60
11321;BMP180;5715;48.234;14.320;2023-11-19T15:07:15;98203.00;;;14.50
11321;BMP180;5715;48.234;14.320;2023-11-19T15:10:04;98209.00;;;14.30
11321;BMP180;5715;48.234;14.320;2023-11-19T15:12:56;98195.00;;;14.40
11321;BMP180;5715;48.234;14.320;2023-11-19T15:15:45;98178.00;;;14.30
11321;BMP180;5715;48.234;14.320;2023-11-19T15:18:32;98192.00;;;14.20
11321;BMP180;5715;48.234;14.320;2023-11-19T15:21:20;98202.00;;;14.10
11321;BMP180;5715;48.234;14.320;2023-11-19T15:24:09;98208.00;;;13.90
11321;BMP180;5715;48.234;14.320;2023-11-19T15:26:56;98189.00;;;14.00
11321;BMP180;5715;48.234;14.320;2023-11-19T15:30:01;98187.00;;;13.90
11321;BMP180;5715;48.234;14.320;2023-11-19T15:32:49;98189.00;;;13.60
11321;BMP180;5715;48.234;14.320;2023-11-19T15:35:37;98186.00;;;13.90
11321;BMP180;5715;48.234;14.320;2023-11-19T15:38:25;98184.00;;;13.80
11321;BMP180;5715;48.234;14.320;2023-11-19T15:41:13;98182.00;;;13.90
11321;BMP180;5715;48.234;14.320;2023-11-19T15:44:01;98192.00;;;13.80
11321;BMP180;5715;48.234;14.320;2023-11-19T15:46:51;98204.00;;;13.60
11321;BMP180;5715;48.234;14.320;2023-11-19T15:49:39;98217.00;;;13.50
11321;BMP180;5715;48.234;14.320;2023-11-19T15:52:26;98202.00;;;13.70
11321;BMP180;5715;48.234;14.320;2023-11-19T15:55:14;98227.00;;;13.70
11321;BMP180;5715;48.234;14.320;2023-11-19T15:58:02;98207.00;;;13.60
11321;BMP180;5715;48.234;14.320;2023-11-19T16:00:49;98187.00;;;13.60
11321;BMP180;5715;48.234;14.320;2023-11-19T16:03:37;98219.00;;;13.60
11321;BMP180;5715;48.234;14.320;2023-11-19T16:06:27;98212.00;;;13.50
11321;BMP180;5715;48.234;14.320;2023-11-19T16:09:15;98221.00;;;13.10
11321;BMP180;5715;48.234;14.320;2023-11-19T16:12:06;98218.00;;;12.90
11321;BMP180;5715;48.234;14.320;2023-11-19T16:14:55;98206.00;;;13.40
11321;BMP180;5715;48.234;14.320;2023-11-19T16:17:43;98227.00;;;12.90
11321;BMP180;5715;48.234;14.320;2023-11-19T16:20:31;98227.00;;;13.20
11321;BMP180;5715;48.234;14.320;2023-11-19T16:23:21;98221.00;;;13.50
11321;BMP180;5715;48.234;14.320;2023-11-19T16:26:09;98210.00;;;13.60
11321;BMP180;5715;48.234;14.320;2023-11-19T16:28:58;98203.00;;;13.70
11321;BMP180;5715;48.234;14.320;2023-11-19T16:31:46;98191.00;;;13.90
11321;BMP180;5715;48.234;14.320;2023-11-19T16:34:35;98193.00;;;13.90